sensor_id;sensor_type;location;lat;lon;timestamp;P1;durP1;ratioP1;P2;durP2;ratioP2
69220;SDS011;56331;51.992;20.910;2023-04-07T00:01:49;1.17;;;0.82;;
69220;SDS011;56331;51.992;20.910;2023-04-07T00:04:18;1.42;;;0.93;;
69220;SDS011;56331;51.992;20.910;2023-04-07T00:06:44;1.00;;;0.70;;
69220;SDS011;56331;51.992;20.910;2023-04-07T00:09:11;0.98;;;0.85;;
69220;SDS011;56331;51.992;20.910;2023-04-07T00:11:38;1.07;;;0.88;;
69220;SDS011;56331;51.992;20.910;2023-04-07T00:14:04;1.20;;;0.93;;
69220;SDS011;56331;51.992;20.910;2023-04-07T00:16:31;1.17;;;0.82;;
69220;SDS011;56331;51.992;20.910;2023-04-07T00:18:58;1.60;;;1.10;;
69220;SDS011;56331;51.992;20.910;2023-04-07T00:21:24;0.90;;;0.62;;
69220;SDS011;56331;51.992;20.910;2023-04-07T00:23:52;1.05;;;0.95;;
69220;SDS011;56331;51.992;20.910;2023-04-07T00:26:18;1.50;;;0.90;;
69220;SDS011;56331;51.992;20.910;2023-04-07T00:28:45;1.98;;;0.93;;
69220;SDS011;56331;51.992;20.910;2023-04-07T00:31:12;1.32;;;1.10;;
69220;SDS011;56331;51.992;20.910;2023-04-07T00:33:39;1.70;;;1.25;;
69220;SDS011;56331;51.992;20.910;2023-04-07T00:36:05;1.42;;;1.00;;
69220;SDS011;56331;51.992;20.910;2023-04-07T00:38:33;1.55;;;0.90;;
69220;SDS011;56331;51.992;20.910;2023-04-07T00:40:59;1.22;;;0.80;;
69220;SDS011;56331;51.992;20.910;2023-04-07T00:43:26;1.37;;;1.07;;
69220;SDS011;56331;51.992;20.910;2023-04-07T00:45:55;1.98;;;0.80;;
69220;SDS011;56331;51.992;20.910;2023-04-07T00:48:21;1.15;;;0.85;;
69220;SDS011;56331;51.992;20.910;2023-04-07T00:50:48;1.50;;;1.00;;
69220;SDS011;56331;51.992;20.910;2023-04-07T00:53:15;0.80;;;0.60;;
69220;SDS011;56331;51.992;20.910;2023-04-07T00:55:42;1.55;;;0.90;;
69220;SDS011;56331;51.992;20.910;2023-04-07T00:58:09;1.40;;;0.95;;
69220;SDS011;56331;51.992;20.910;2023-04-07T01:00:37;1.50;;;1.10;;
69220;SDS011;56331;51.992;20.910;2023-04-07T01:03:09;1.57;;;0.90;;
69220;SDS011;56331;51.992;20.910;2023-04-07T01:05:42;1.17;;;1.05;;
69220;SDS011;56331;51.992;20.910;2023-04-07T01:08:23;1.10;;;0.90;;
69220;SDS011;56331;51.992;20.910;2023-04-07T01:11:03;1.12;;;0.80;;
69220;SDS011;56331;51.992;20.910;2023-04-07T01:13:34;0.90;;;0.80;;
69220;SDS011;56331;51.992;20.910;2023-04-07T01:16:04;1.00;;;0.70;;
69220;SDS011;56331;51.992;20.910;2023-04-07T01:18:33;1.52;;;1.10;;
69220;SDS011;56331;51.992;20.910;2023-04-07T01:21:14;1.65;;;1.05;;
69220;SDS011;56331;51.992;20.910;2023-04-07T01:26:31;1.27;;;1.02;;
69220;SDS011;56331;51.992;20.910;2023-04-07T01:32:03;1.22;;;0.80;;
69220;SDS011;56331;51.992;20.910;2023-04-07T01:34:32;1.07;;;0.93;;
69220;SDS011;56331;51.992;20.910;2023-04-07T01:37:00;1.12;;;1.00;;
69220;SDS011;56331;51.992;20.910;2023-04-07T01:39:27;1.37;;;0.93;;
69220;SDS011;56331;51.992;20.910;2023-04-07T01:41:55;1.60;;;0.93;;
69220;SDS011;56331;51.992;20.910;2023-04-07T01:44:23;1.10;;;0.90;;
69220;SDS011;56331;51.992;20.910;2023-04-07T01:46:52;1.10;;;1.00;;
69220;SDS011;56331;51.992;20.910;2023-04-07T01:49:25;0.88;;;0.80;;
69220;SDS011;56331;51.992;20.910;2023-04-07T01:51:52;1.40;;;1.00;;
69220;SDS011;56331;51.992;20.910;2023-04-07T01:54:20;1.02;;;0.93;;
69220;SDS011;56331;51.992;20.910;2023-04-07T01:56:47;1.07;;;0.75;;
69220;SDS011;56331;51.992;20.910;2023-04-07T01:59:14;1.42;;;0.90;;
69220;SDS011;56331;51.992;20.910;2023-04-07T02:01:41;1.40;;;1.00;;
69220;SDS011;56331;51.992;20.910;2023-04-07T02:04:12;1.12;;;0.90;;
69220;SDS011;56331;51.992;20.910;2023-04-07T02:06:56;1.22;;;1.07;;
69220;SDS011;56331;51.992;20.910;2023-04-07T02:09:29;0.93;;;0.85;;
69220;SDS011;56331;51.992;20.910;2023-04-07T02:11:59;1.02;;;0.90;;
69220;SDS011;56331;51.992;20.910;2023-04-07T02:14:27;1.00;;;0.93;;
69220;SDS011;56331;51.992;20.910;2023-04-07T02:16:54;1.47;;;1.25;;
69220;SDS011;56331;51.992;20.910;2023-04-07T02:19:22;0.95;;;0.78;;
69220;SDS011;56331;51.992;20.910;2023-04-07T02:21:49;1.32;;;0.93;;
69220;SDS011;56331;51.992;20.910;2023-04-07T02:24:20;1.87;;;1.02;;
69220;SDS011;56331;51.992;20.910;2023-04-07T02:26:47;1.05;;;0.80;;
69220;SDS011;56331;51.992;20.910;2023-04-07T02:29:14;1.57;;;1.10;;
69220;SDS011;56331;51.992;20.910;2023-04-07T02:31:40;1.32;;;0.98;;
69220;SDS011;56331;51.992;20.910;2023-04-07T02:34:07;1.30;;;0.90;;
69220;SDS011;56331;51.992;20.910;2023-04-07T02:36:38;1.57;;;1.15;;
69220;SDS011;56331;51.992;20.910;2023-04-07T02:39:02;1.15;;;0.98;;
69220;SDS011;56331;51.992;20.910;2023-04-07T02:41:29;1.40;;;1.05;;
69220;SDS011;56331;51.992;20.910;2023-04-07T02:43:55;1.32;;;1.07;;
69220;SDS011;56331;51.992;20.910;2023-04-07T02:46:22;1.05;;;0.85;;
69220;SDS011;56331;51.992;20.910;2023-04-07T02:48:49;1.10;;;1.00;;
69220;SDS011;56331;51.992;20.910;2023-04-07T02:51:16;1.10;;;0.98;;
69220;SDS011;56331;51.992;20.910;2023-04-07T02:53:43;1.30;;;0.90;;
69220;SDS011;56331;51.992;20.910;2023-04-07T02:56:09;1.52;;;1.05;;
69220;SDS011;56331;51.992;20.910;2023-04-07T02:58:41;1.77;;;0.98;;
69220;SDS011;56331;51.992;20.910;2023-04-07T03:01:08;1.00;;;0.82;;
69220;SDS011;56331;51.992;20.910;2023-04-07T03:03:34;1.00;;;0.80;;
69220;SDS011;56331;51.992;20.910;2023-04-07T03:06:02;1.30;;;0.90;;
69220;SDS011;56331;51.992;20.910;2023-04-07T03:08:34;1.17;;;0.90;;
69220;SDS011;56331;51.992;20.910;2023-04-07T03:10:58;0.88;;;0.80;;
69220;SDS011;56331;51.992;20.910;2023-04-07T03:13:25;1.05;;;0.95;;
69220;SDS011;56331;51.992;20.910;2023-04-07T03:15:53;1.22;;;1.02;;
69220;SDS011;56331;51.992;20.910;2023-04-07T03:18:19;0.98;;;0.80;;
69220;SDS011;56331;51.992;20.910;2023-04-07T03:20:48;1.45;;;1.10;;
69220;SDS011;56331;51.992;20.910;2023-04-07T03:23:17;1.60;;;1.00;;
69220;SDS011;56331;51.992;20.910;2023-04-07T03:25:44;0.93;;;0.70;;
69220;SDS011;56331;51.992;20.910;2023-04-07T03:28:10;1.50;;;0.90;;
69220;SDS011;56331;51.992;20.910;2023-04-07T03:30:38;1.37;;;1.00;;
69220;SDS011;56331;51.992;20.910;2023-04-07T03:33:04;1.57;;;1.22;;
69220;SDS011;56331;51.992;20.910;2023-04-07T03:35:32;1.20;;;0.90;;
69220;SDS011;56331;51.992;20.910;2023-04-07T03:37:59;1.10;;;0.90;;
69220;SDS011;56331;51.992;20.910;2023-04-07T03:40:25;1.00;;;0.90;;
69220;SDS011;56331;51.992;20.910;2023-04-07T03:42:51;1.05;;;0.90;;
69220;SDS011;56331;51.992;20.910;2023-04-07T03:45:27;1.05;;;0.93;;
69220;SDS011;56331;51.992;20.910;2023-04-07T03:47:54;1.20;;;1.00;;
69220;SDS011;56331;51.992;20.910;2023-04-07T03:50:21;1.10;;;0.80;;
69220;SDS011;56331;51.992;20.910;2023-04-07T03:52:49;1.22;;;1.00;;
69220;SDS011;56331;51.992;20.910;2023-04-07T03:55:16;1.20;;;1.10;;
69220;SDS011;56331;51.992;20.910;2023-04-07T03:57:43;1.10;;;1.00;;
69220;SDS011;56331;51.992;20.910;2023-04-07T04:00:10;1.22;;;1.07;;
69220;SDS011;56331;51.992;20.910;2023-04-07T04:02:38;1.30;;;1.00;;
69220;SDS011;56331;51.992;20.910;2023-04-07T04:05:05;1.07;;;0.90;;
69220;SDS011;56331;51.992;20.910;2023-04-07T04:07:31;0.90;;;0.90;;
69220;SDS011;56331;51.992;20.910;2023-04-07T04:09:59;1.30;;;1.10;;
69220;SDS011;56331;51.992;20.910;2023-04-07T04:12:26;1.42;;;1.12;;
69220;SDS011;56331;51.992;20.910;2023-04-07T04:14:52;1.82;;;1.20;;
69220;SDS011;56331;51.992;20.910;2023-04-07T04:17:19;1.30;;;1.10;;
69220;SDS011;56331;51.992;20.910;2023-04-07T04:19:46;0.95;;;0.85;;
69220;SDS011;56331;51.992;20.910;2023-04-07T04:22:16;1.60;;;1.20;;
69220;SDS011;56331;51.992;20.910;2023-04-07T04:24:43;1.22;;;1.10;;
69220;SDS011;56331;51.992;20.910;2023-04-07T04:27:10;1.45;;;1.17;;
69220;SDS011;56331;51.992;20.910;2023-04-07T04:29:36;1.02;;;0.90;;
69220;SDS011;56331;51.992;20.910;2023-04-07T04:32:03;1.37;;;1.20;;
69220;SDS011;56331;51.992;20.910;2023-04-07T04:34:30;1.42;;;1.17;;
69220;SDS011;56331;51.992;20.910;2023-04-07T04:36:57;0.93;;;0.80;;
69220;SDS011;56331;51.992;20.910;2023-04-07T04:39:23;1.10;;;0.93;;
69220;SDS011;56331;51.992;20.910;2023-04-07T04:41:50;1.40;;;1.30;;
69220;SDS011;56331;51.992;20.910;2023-04-07T04:44:17;1.60;;;1.20;;
69220;SDS011;56331;51.992;20.910;2023-04-07T04:46:43;1.47;;;1.30;;
69220;SDS011;56331;51.992;20.910;2023-04-07T04:49:10;0.90;;;0.88;;
69220;SDS011;56331;51.992;20.910;2023-04-07T04:51:36;1.65;;;1.40;;
69220;SDS011;56331;51.992;20.910;2023-04-07T04:54:04;1.20;;;1.02;;
69220;SDS011;56331;51.992;20.910;2023-04-07T04:56:32;1.35;;;1.20;;
69220;SDS011;56331;51.992;20.910;2023-04-07T04:59:01;1.50;;;1.15;;
69220;SDS011;56331;51.992;20.910;2023-04-07T05:01:30;1.45;;;1.35;;
69220;SDS011;56331;51.992;20.910;2023-04-07T05:03:57;1.42;;;1.22;;
69220;SDS011;56331;51.992;20.910;2023-04-07T05:06:26;1.40;;;1.30;;
69220;SDS011;56331;51.992;20.910;2023-04-07T05:08:52;1.60;;;1.20;;
69220;SDS011;56331;51.992;20.910;2023-04-07T05:11:19;1.60;;;1.07;;
69220;SDS011;56331;51.992;20.910;2023-04-07T05:13:46;1.55;;;1.30;;
69220;SDS011;56331;51.992;20.910;2023-04-07T05:16:13;1.85;;;1.27;;
69220;SDS011;56331;51.992;20.910;2023-04-07T05:18:39;1.60;;;1.20;;
69220;SDS011;56331;51.992;20.910;2023-04-07T05:21:06;1.55;;;1.20;;
69220;SDS011;56331;51.992;20.910;2023-04-07T05:23:32;1.32;;;1.07;;
69220;SDS011;56331;51.992;20.910;2023-04-07T05:25:59;1.47;;;1.20;;
69220;SDS011;56331;51.992;20.910;2023-04-07T05:28:25;1.57;;;1.35;;
69220;SDS011;56331;51.992;20.910;2023-04-07T05:30:52;1.50;;;1.40;;
69220;SDS011;56331;51.992;20.910;2023-04-07T05:33:18;1.42;;;1.25;;
69220;SDS011;56331;51.992;20.910;2023-04-07T05:35:45;1.62;;;1.40;;
69220;SDS011;56331;51.992;20.910;2023-04-07T05:38:11;2.08;;;1.37;;
69220;SDS011;56331;51.992;20.910;2023-04-07T05:40:39;1.30;;;1.20;;
69220;SDS011;56331;51.992;20.910;2023-04-07T05:43:06;1.60;;;1.37;;
69220;SDS011;56331;51.992;20.910;2023-04-07T05:45:32;2.37;;;1.10;;
69220;SDS011;56331;51.992;20.910;2023-04-07T05:47:59;2.10;;;1.42;;
69220;SDS011;56331;51.992;20.910;2023-04-07T05:50:25;1.85;;;1.50;;
69220;SDS011;56331;51.992;20.910;2023-04-07T05:52:52;1.85;;;1.50;;
69220;SDS011;56331;51.992;20.910;2023-04-07T05:55:18;1.42;;;1.12;;
69220;SDS011;56331;51.992;20.910;2023-04-07T05:57:45;1.72;;;1.30;;
69220;SDS011;56331;51.992;20.910;2023-04-07T06:00:12;2.00;;;1.40;;
69220;SDS011;56331;51.992;20.910;2023-04-07T06:02:39;1.45;;;1.30;;
69220;SDS011;56331;51.992;20.910;2023-04-07T06:05:06;2.45;;;1.25;;
69220;SDS011;56331;51.992;20.910;2023-04-07T06:07:33;2.00;;;1.30;;
69220;SDS011;56331;51.992;20.910;2023-04-07T06:10:00;2.58;;;1.60;;
69220;SDS011;56331;51.992;20.910;2023-04-07T06:12:26;1.85;;;1.40;;
69220;SDS011;56331;51.992;20.910;2023-04-07T06:14:53;2.85;;;1.70;;
69220;SDS011;56331;51.992;20.910;2023-04-07T06:17:21;3.30;;;2.22;;
69220;SDS011;56331;51.992;20.910;2023-04-07T06:19:48;2.40;;;1.45;;
69220;SDS011;56331;51.992;20.910;2023-04-07T06:22:14;2.85;;;1.75;;
69220;SDS011;56331;51.992;20.910;2023-04-07T06:24:41;2.37;;;1.62;;
69220;SDS011;56331;51.992;20.910;2023-04-07T06:27:08;2.50;;;1.70;;
69220;SDS011;56331;51.992;20.910;2023-04-07T06:29:34;3.95;;;1.80;;
69220;SDS011;56331;51.992;20.910;2023-04-07T06:32:03;1.90;;;1.60;;
69220;SDS011;56331;51.992;20.910;2023-04-07T06:34:29;2.00;;;1.60;;
69220;SDS011;56331;51.992;20.910;2023-04-07T06:36:56;2.60;;;1.80;;
69220;SDS011;56331;51.992;20.910;2023-04-07T06:39:24;2.22;;;1.70;;
69220;SDS011;56331;51.992;20.910;2023-04-07T06:41:51;3.50;;;1.80;;
69220;SDS011;56331;51.992;20.910;2023-04-07T06:44:17;3.62;;;1.50;;
69220;SDS011;56331;51.992;20.910;2023-04-07T06:46:44;2.35;;;1.60;;
69220;SDS011;56331;51.992;20.910;2023-04-07T06:49:12;2.10;;;1.72;;
69220;SDS011;56331;51.992;20.910;2023-04-07T06:51:39;2.15;;;1.77;;
69220;SDS011;56331;51.992;20.910;2023-04-07T06:54:08;2.17;;;1.70;;
69220;SDS011;56331;51.992;20.910;2023-04-07T06:56:37;2.22;;;2.00;;
69220;SDS011;56331;51.992;20.910;2023-04-07T06:59:03;1.90;;;1.67;;
69220;SDS011;56331;51.992;20.910;2023-04-07T07:01:30;2.75;;;1.70;;
69220;SDS011;56331;51.992;20.910;2023-04-07T07:03:59;3.27;;;2.15;;
69220;SDS011;56331;51.992;20.910;2023-04-07T07:06:28;2.10;;;1.72;;
69220;SDS011;56331;51.992;20.910;2023-04-07T07:08:54;2.15;;;1.67;;
69220;SDS011;56331;51.992;20.910;2023-04-07T07:11:20;2.52;;;1.87;;
69220;SDS011;56331;51.992;20.910;2023-04-07T07:13:46;2.95;;;1.98;;
69220;SDS011;56331;51.992;20.910;2023-04-07T07:16:15;1.75;;;1.60;;
69220;SDS011;56331;51.992;20.910;2023-04-07T07:18:41;3.65;;;1.82;;
69220;SDS011;56331;51.992;20.910;2023-04-07T07:21:08;2.00;;;1.70;;
69220;SDS011;56331;51.992;20.910;2023-04-07T07:23:35;2.47;;;2.00;;
69220;SDS011;56331;51.992;20.910;2023-04-07T07:26:01;1.70;;;1.50;;
69220;SDS011;56331;51.992;20.910;2023-04-07T07:28:28;2.52;;;2.00;;
69220;SDS011;56331;51.992;20.910;2023-04-07T07:30:55;2.33;;;1.72;;
69220;SDS011;56331;51.992;20.910;2023-04-07T07:33:21;1.70;;;1.52;;
69220;SDS011;56331;51.992;20.910;2023-04-07T07:35:47;2.42;;;1.50;;
69220;SDS011;56331;51.992;20.910;2023-04-07T07:40:54;2.08;;;1.40;;
69220;SDS011;56331;51.992;20.910;2023-04-07T07:43:21;1.60;;;1.50;;
69220;SDS011;56331;51.992;20.910;2023-04-07T07:45:49;2.08;;;1.82;;
69220;SDS011;56331;51.992;20.910;2023-04-07T07:48:15;1.72;;;1.52;;
69220;SDS011;56331;51.992;20.910;2023-04-07T07:50:42;3.12;;;1.67;;
69220;SDS011;56331;51.992;20.910;2023-04-07T07:53:09;1.92;;;1.72;;
69220;SDS011;56331;51.992;20.910;2023-04-07T07:55:36;3.05;;;1.60;;
69220;SDS011;56331;51.992;20.910;2023-04-07T07:58:02;4.67;;;1.87;;
69220;SDS011;56331;51.992;20.910;2023-04-07T08:00:31;4.97;;;1.82;;
69220;SDS011;56331;51.992;20.910;2023-04-07T08:02:58;3.52;;;1.77;;
69220;SDS011;56331;51.992;20.910;2023-04-07T08:05:29;5.58;;;1.72;;
69220;SDS011;56331;51.992;20.910;2023-04-07T08:07:53;2.77;;;1.70;;
69220;SDS011;56331;51.992;20.910;2023-04-07T08:10:20;2.62;;;1.60;;
69220;SDS011;56331;51.992;20.910;2023-04-07T08:12:49;2.72;;;1.67;;
69220;SDS011;56331;51.992;20.910;2023-04-07T08:15:16;2.55;;;1.60;;
69220;SDS011;56331;51.992;20.910;2023-04-07T08:17:43;2.40;;;1.80;;
69220;SDS011;56331;51.992;20.910;2023-04-07T08:20:10;2.75;;;1.62;;
69220;SDS011;56331;51.992;20.910;2023-04-07T08:22:37;3.17;;;1.52;;
69220;SDS011;56331;51.992;20.910;2023-04-07T08:25:05;2.12;;;1.92;;
69220;SDS011;56331;51.992;20.910;2023-04-07T08:30:00;2.20;;;1.47;;
69220;SDS011;56331;51.992;20.910;2023-04-07T08:32:34;3.87;;;1.98;;
69220;SDS011;56331;51.992;20.910;2023-04-07T08:35:08;2.30;;;2.05;;
69220;SDS011;56331;51.992;20.910;2023-04-07T08:37:36;4.35;;;1.77;;
69220;SDS011;56331;51.992;20.910;2023-04-07T08:40:03;7.42;;;2.00;;
69220;SDS011;56331;51.992;20.910;2023-04-07T08:42:31;3.40;;;1.67;;
69220;SDS011;56331;51.992;20.910;2023-04-07T08:45:06;3.60;;;2.08;;
69220;SDS011;56331;51.992;20.910;2023-04-07T08:47:31;3.17;;;1.95;;
69220;SDS011;56331;51.992;20.910;2023-04-07T08:50:06;5.75;;;2.35;;
69220;SDS011;56331;51.992;20.910;2023-04-07T08:52:32;3.42;;;1.80;;
69220;SDS011;56331;51.992;20.910;2023-04-07T08:55:01;4.80;;;1.90;;
69220;SDS011;56331;51.992;20.910;2023-04-07T08:57:31;2.27;;;2.00;;
69220;SDS011;56331;51.992;20.910;2023-04-07T08:59:58;4.25;;;2.30;;
69220;SDS011;56331;51.992;20.910;2023-04-07T09:02:35;5.20;;;1.85;;
69220;SDS011;56331;51.992;20.910;2023-04-07T09:05:03;4.62;;;1.80;;
69220;SDS011;56331;51.992;20.910;2023-04-07T09:07:32;2.62;;;2.08;;
69220;SDS011;56331;51.992;20.910;2023-04-07T09:10:00;2.80;;;2.10;;
69220;SDS011;56331;51.992;20.910;2023-04-07T09:12:27;2.90;;;1.67;;
69220;SDS011;56331;51.992;20.910;2023-04-07T09:14:54;3.50;;;1.98;;
69220;SDS011;56331;51.992;20.910;2023-04-07T09:17:21;2.12;;;1.72;;
69220;SDS011;56331;51.992;20.910;2023-04-07T09:19:47;2.65;;;2.20;;
69220;SDS011;56331;51.992;20.910;2023-04-07T09:22:14;2.50;;;1.80;;
69220;SDS011;56331;51.992;20.910;2023-04-07T09:24:43;3.45;;;2.25;;
69220;SDS011;56331;51.992;20.910;2023-04-07T09:27:10;4.28;;;1.82;;
69220;SDS011;56331;51.992;20.910;2023-04-07T09:29:43;4.37;;;1.85;;
69220;SDS011;56331;51.992;20.910;2023-04-07T09:32:20;1.85;;;1.65;;
69220;SDS011;56331;51.992;20.910;2023-04-07T09:34:59;2.58;;;1.85;;
69220;SDS011;56331;51.992;20.910;2023-04-07T09:37:26;2.37;;;1.50;;
69220;SDS011;56331;51.992;20.910;2023-04-07T09:39:52;2.45;;;1.82;;
69220;SDS011;56331;51.992;20.910;2023-04-07T09:42:19;4.33;;;2.00;;
69220;SDS011;56331;51.992;20.910;2023-04-07T09:44:46;2.62;;;1.70;;
69220;SDS011;56331;51.992;20.910;2023-04-07T09:47:13;1.90;;;1.67;;
69220;SDS011;56331;51.992;20.910;2023-04-07T09:49:49;3.67;;;1.85;;
69220;SDS011;56331;51.992;20.910;2023-04-07T09:52:18;2.37;;;1.72;;
69220;SDS011;56331;51.992;20.910;2023-04-07T09:54:46;3.35;;;1.60;;
69220;SDS011;56331;51.992;20.910;2023-04-07T09:57:14;1.60;;;1.50;;
69220;SDS011;56331;51.992;20.910;2023-04-07T09:59:42;2.20;;;1.80;;
69220;SDS011;56331;51.992;20.910;2023-04-07T10:02:09;2.85;;;1.80;;
69220;SDS011;56331;51.992;20.910;2023-04-07T10:04:37;1.87;;;1.67;;
69220;SDS011;56331;51.992;20.910;2023-04-07T10:07:05;2.85;;;1.52;;
69220;SDS011;56331;51.992;20.910;2023-04-07T10:09:32;3.08;;;1.60;;
69220;SDS011;56331;51.992;20.910;2023-04-07T10:11:58;1.98;;;1.70;;
69220;SDS011;56331;51.992;20.910;2023-04-07T10:14:26;2.50;;;1.32;;
69220;SDS011;56331;51.992;20.910;2023-04-07T10:16:54;3.00;;;1.80;;
69220;SDS011;56331;51.992;20.910;2023-04-07T10:19:20;2.70;;;1.90;;
69220;SDS011;56331;51.992;20.910;2023-04-07T10:27:06;2.90;;;1.60;;
69220;SDS011;56331;51.992;20.910;2023-04-07T10:29:36;2.30;;;1.70;;
69220;SDS011;56331;51.992;20.910;2023-04-07T10:32:06;2.33;;;1.90;;
69220;SDS011;56331;51.992;20.910;2023-04-07T10:37:25;4.60;;;1.80;;
69220;SDS011;56331;51.992;20.910;2023-04-07T10:42:46;2.30;;;1.87;;
69220;SDS011;56331;51.992;20.910;2023-04-07T10:45:16;6.15;;;2.08;;
69220;SDS011;56331;51.992;20.910;2023-04-07T10:48:28;4.97;;;1.92;;
69220;SDS011;56331;51.992;20.910;2023-04-07T10:50:25;3.12;;;1.72;;
69220;SDS011;56331;51.992;20.910;2023-04-07T10:55:43;4.42;;;1.92;;
69220;SDS011;56331;51.992;20.910;2023-04-07T10:58:15;4.17;;;2.00;;
69220;SDS011;56331;51.992;20.910;2023-04-07T11:03:36;2.75;;;1.90;;
69220;SDS011;56331;51.992;20.910;2023-04-07T11:06:08;2.72;;;1.87;;
69220;SDS011;56331;51.992;20.910;2023-04-07T11:11:12;3.65;;;1.87;;
69220;SDS011;56331;51.992;20.910;2023-04-07T11:13:44;3.03;;;2.30;;
69220;SDS011;56331;51.992;20.910;2023-04-07T11:16:16;3.52;;;2.10;;
69220;SDS011;56331;51.992;20.910;2023-04-07T11:18:44;2.52;;;1.82;;
69220;SDS011;56331;51.992;20.910;2023-04-07T11:21:16;2.30;;;1.92;;
69220;SDS011;56331;51.992;20.910;2023-04-07T11:23:45;5.22;;;2.50;;
69220;SDS011;56331;51.992;20.910;2023-04-07T11:26:13;4.40;;;2.95;;
69220;SDS011;56331;51.992;20.910;2023-04-07T11:28:47;4.83;;;2.60;;
69220;SDS011;56331;51.992;20.910;2023-04-07T11:31:25;3.87;;;2.10;;
69220;SDS011;56331;51.992;20.910;2023-04-07T11:33:57;2.90;;;1.90;;
69220;SDS011;56331;51.992;20.910;2023-04-07T11:36:25;4.65;;;2.30;;
69220;SDS011;56331;51.992;20.910;2023-04-07T11:38:53;4.17;;;2.45;;
69220;SDS011;56331;51.992;20.910;2023-04-07T11:41:21;3.67;;;2.17;;
69220;SDS011;56331;51.992;20.910;2023-04-07T11:43:48;4.17;;;2.30;;
69220;SDS011;56331;51.992;20.910;2023-04-07T11:46:16;3.20;;;2.72;;
69220;SDS011;56331;51.992;20.910;2023-04-07T11:48:44;4.72;;;3.00;;
69220;SDS011;56331;51.992;20.910;2023-04-07T11:51:15;4.20;;;2.60;;
69220;SDS011;56331;51.992;20.910;2023-04-07T11:53:44;3.98;;;2.12;;
69220;SDS011;56331;51.992;20.910;2023-04-07T11:56:13;4.40;;;2.90;;
69220;SDS011;56331;51.992;20.910;2023-04-07T11:58:47;3.00;;;2.40;;
69220;SDS011;56331;51.992;20.910;2023-04-07T12:01:18;3.77;;;2.60;;
69220;SDS011;56331;51.992;20.910;2023-04-07T12:06:30;5.65;;;2.58;;
69220;SDS011;56331;51.992;20.910;2023-04-07T12:09:00;6.50;;;3.58;;
69220;SDS011;56331;51.992;20.910;2023-04-07T12:11:28;4.10;;;3.30;;
69220;SDS011;56331;51.992;20.910;2023-04-07T12:13:54;4.00;;;3.05;;
69220;SDS011;56331;51.992;20.910;2023-04-07T12:16:22;6.53;;;3.17;;
69220;SDS011;56331;51.992;20.910;2023-04-07T12:18:49;7.03;;;3.60;;
69220;SDS011;56331;51.992;20.910;2023-04-07T12:21:18;5.30;;;3.08;;
69220;SDS011;56331;51.992;20.910;2023-04-07T12:23:45;6.87;;;3.40;;
69220;SDS011;56331;51.992;20.910;2023-04-07T12:26:12;6.28;;;3.22;;
69220;SDS011;56331;51.992;20.910;2023-04-07T12:28:38;6.60;;;3.98;;
69220;SDS011;56331;51.992;20.910;2023-04-07T12:31:06;7.17;;;3.65;;
69220;SDS011;56331;51.992;20.910;2023-04-07T12:33:32;6.75;;;3.75;;
69220;SDS011;56331;51.992;20.910;2023-04-07T12:36:00;6.20;;;3.37;;
69220;SDS011;56331;51.992;20.910;2023-04-07T12:38:27;4.67;;;3.33;;
69220;SDS011;56331;51.992;20.910;2023-04-07T12:40:53;8.08;;;2.98;;
69220;SDS011;56331;51.992;20.910;2023-04-07T12:43:20;9.10;;;3.10;;
69220;SDS011;56331;51.992;20.910;2023-04-07T12:45:46;6.28;;;2.98;;
69220;SDS011;56331;51.992;20.910;2023-04-07T12:48:12;9.13;;;3.20;;
69220;SDS011;56331;51.992;20.910;2023-04-07T12:50:39;7.05;;;3.35;;
69220;SDS011;56331;51.992;20.910;2023-04-07T12:53:05;9.68;;;3.65;;
69220;SDS011;56331;51.992;20.910;2023-04-07T12:55:31;5.83;;;2.87;;
69220;SDS011;56331;51.992;20.910;2023-04-07T12:58:00;8.80;;;3.20;;
69220;SDS011;56331;51.992;20.910;2023-04-07T13:00:26;6.70;;;3.08;;
69220;SDS011;56331;51.992;20.910;2023-04-07T13:02:53;5.22;;;2.58;;
69220;SDS011;56331;51.992;20.910;2023-04-07T13:05:19;5.17;;;3.00;;
69220;SDS011;56331;51.992;20.910;2023-04-07T13:07:46;5.12;;;2.77;;
69220;SDS011;56331;51.992;20.910;2023-04-07T13:10:12;8.00;;;2.67;;
69220;SDS011;56331;51.992;20.910;2023-04-07T13:12:39;5.37;;;2.50;;
69220;SDS011;56331;51.992;20.910;2023-04-07T13:15:07;5.33;;;2.58;;
69220;SDS011;56331;51.992;20.910;2023-04-07T13:17:33;4.37;;;2.65;;
69220;SDS011;56331;51.992;20.910;2023-04-07T13:20:05;7.42;;;2.95;;
69220;SDS011;56331;51.992;20.910;2023-04-07T13:24:57;3.40;;;2.30;;
69220;SDS011;56331;51.992;20.910;2023-04-07T13:27:23;4.65;;;2.58;;
69220;SDS011;56331;51.992;20.910;2023-04-07T13:29:51;3.83;;;2.50;;
69220;SDS011;56331;51.992;20.910;2023-04-07T13:32:17;3.37;;;2.22;;
69220;SDS011;56331;51.992;20.910;2023-04-07T13:34:44;4.30;;;2.67;;
69220;SDS011;56331;51.992;20.910;2023-04-07T13:37:11;3.45;;;2.10;;
69220;SDS011;56331;51.992;20.910;2023-04-07T13:39:37;3.22;;;2.20;;
69220;SDS011;56331;51.992;20.910;2023-04-07T13:42:04;3.95;;;2.40;;
69220;SDS011;56331;51.992;20.910;2023-04-07T13:44:35;3.85;;;2.05;;
69220;SDS011;56331;51.992;20.910;2023-04-07T13:47:01;3.08;;;2.10;;
69220;SDS011;56331;51.992;20.910;2023-04-07T13:49:28;4.37;;;2.10;;
69220;SDS011;56331;51.992;20.910;2023-04-07T13:51:54;4.25;;;2.02;;
69220;SDS011;56331;51.992;20.910;2023-04-07T13:54:21;2.08;;;1.72;;
69220;SDS011;56331;51.992;20.910;2023-04-07T13:56:48;4.08;;;1.98;;
69220;SDS011;56331;51.992;20.910;2023-04-07T13:59:18;4.37;;;1.80;;
69220;SDS011;56331;51.992;20.910;2023-04-07T14:01:45;3.30;;;1.80;;
69220;SDS011;56331;51.992;20.910;2023-04-07T14:04:13;3.52;;;1.80;;
69220;SDS011;56331;51.992;20.910;2023-04-07T14:06:40;4.78;;;1.82;;
69220;SDS011;56331;51.992;20.910;2023-04-07T14:09:06;2.60;;;1.57;;
69220;SDS011;56331;51.992;20.910;2023-04-07T14:11:33;2.47;;;1.77;;
69220;SDS011;56331;51.992;20.910;2023-04-07T14:13:59;4.25;;;1.98;;
69220;SDS011;56331;51.992;20.910;2023-04-07T14:16:26;3.40;;;1.77;;
69220;SDS011;56331;51.992;20.910;2023-04-07T14:18:53;2.65;;;1.40;;
69220;SDS011;56331;51.992;20.910;2023-04-07T14:23:49;13.18;;;2.80;;
69220;SDS011;56331;51.992;20.910;2023-04-07T14:26:16;10.23;;;2.70;;
69220;SDS011;56331;51.992;20.910;2023-04-07T14:28:45;7.55;;;2.20;;
69220;SDS011;56331;51.992;20.910;2023-04-07T14:31:12;8.10;;;2.25;;
69220;SDS011;56331;51.992;20.910;2023-04-07T14:33:43;11.40;;;2.80;;
69220;SDS011;56331;51.992;20.910;2023-04-07T14:38:38;8.43;;;2.30;;
69220;SDS011;56331;51.992;20.910;2023-04-07T14:41:04;8.83;;;2.27;;
69220;SDS011;56331;51.992;20.910;2023-04-07T14:43:31;7.95;;;2.75;;
69220;SDS011;56331;51.992;20.910;2023-04-07T14:45:57;4.03;;;1.85;;
69220;SDS011;56331;51.992;20.910;2023-04-07T14:48:24;5.00;;;2.50;;
69220;SDS011;56331;51.992;20.910;2023-04-07T14:50:54;5.58;;;2.05;;
69220;SDS011;56331;51.992;20.910;2023-04-07T14:53:28;8.48;;;2.40;;
69220;SDS011;56331;51.992;20.910;2023-04-07T14:55:55;5.05;;;2.17;;
69220;SDS011;56331;51.992;20.910;2023-04-07T14:58:21;5.97;;;1.90;;
69220;SDS011;56331;51.992;20.910;2023-04-07T15:00:48;7.40;;;2.62;;
69220;SDS011;56331;51.992;20.910;2023-04-07T15:03:14;5.30;;;2.17;;
69220;SDS011;56331;51.992;20.910;2023-04-07T15:05:41;5.60;;;2.62;;
69220;SDS011;56331;51.992;20.910;2023-04-07T15:08:07;6.75;;;2.12;;
69220;SDS011;56331;51.992;20.910;2023-04-07T15:10:37;6.08;;;1.90;;
69220;SDS011;56331;51.992;20.910;2023-04-07T15:13:04;5.55;;;1.75;;
69220;SDS011;56331;51.992;20.910;2023-04-07T15:15:31;3.95;;;1.98;;
69220;SDS011;56331;51.992;20.910;2023-04-07T15:17:57;4.58;;;1.77;;